ΕΜΥ, Εθνική Μετεωρολογική Υπηρεσία - Δελτία Καιρού, Προγνώσεις

ΑΕΡΟΝΑΥΤΙΛΙΑ

GREEK AIRPORTS CODES

TAF LGIR 261700Z 2618/2718 19012KT 9999 SCT020 SCT070 TEMPO 2618/2624 20014G24KT BECMG 2700/2702 31010KT PROB40 TEMPO 2618/2708 5000 RA FEW016TCU BKN020 PROB30 TEMPO 2618/2624 4000 TSRA FEW012 FEW016CB BKN020=

EUROPEAN AIRPORTS CODES